createdAt,value
2018-02-19T00:01:04.743Z,994.35
2018-02-19T00:02:11.528Z,994.32
2018-02-19T00:03:18.367Z,994.31
2018-02-19T00:04:25.091Z,994.39
2018-02-19T00:05:31.889Z,994.39
2018-02-19T00:06:38.620Z,994.34
2018-02-19T00:07:45.456Z,994.38
2018-02-19T00:08:52.172Z,994.33
2018-02-19T00:09:58.924Z,994.30
2018-02-19T00:11:05.668Z,994.32
2018-02-19T00:12:12.529Z,994.33
2018-02-19T00:13:19.276Z,994.22
2018-02-19T00:14:26.059Z,994.26
2018-02-19T00:15:32.789Z,994.24
2018-02-19T00:16:39.636Z,994.24
2018-02-19T00:17:46.362Z,994.29
2018-02-19T00:18:53.175Z,994.22
2018-02-19T00:20:00.133Z,994.25
2018-02-19T00:21:06.873Z,994.17
2018-02-19T00:22:13.612Z,994.25
2018-02-19T00:23:20.320Z,994.26
2018-02-19T00:24:27.041Z,994.31
2018-02-19T00:25:33.822Z,994.27
2018-02-19T00:26:40.556Z,994.28
2018-02-19T00:27:47.288Z,994.29
2018-02-19T00:28:54.023Z,994.36
2018-02-19T00:30:00.816Z,994.34
2018-02-19T00:31:07.683Z,994.31
2018-02-19T00:32:14.412Z,994.36
2018-02-19T00:33:21.161Z,994.35
2018-02-19T00:34:28.028Z,994.38
2018-02-19T00:35:34.772Z,994.41
2018-02-19T00:36:41.529Z,994.36
2018-02-19T00:37:48.240Z,994.35
2018-02-19T00:38:55.096Z,994.31
2018-02-19T00:40:01.920Z,994.31
2018-02-19T00:41:08.656Z,994.31
2018-02-19T00:42:15.380Z,994.32
2018-02-19T00:43:22.196Z,994.35
2018-02-19T00:44:28.956Z,994.26
2018-02-19T00:45:35.720Z,994.23
2018-02-19T00:46:42.432Z,994.27
2018-02-19T00:47:49.152Z,994.26
2018-02-19T00:48:55.937Z,994.19
2018-02-19T00:50:02.681Z,994.17
2018-02-19T00:51:09.432Z,994.04
2018-02-19T00:52:24.100Z,994.12
2018-02-19T00:53:22.844Z,994.06
2018-02-19T00:54:29.681Z,994.05
2018-02-19T00:55:36.456Z,994.10
2018-02-19T00:56:43.196Z,994.06
2018-02-19T00:57:49.927Z,994.05
2018-02-19T00:58:56.777Z,993.99
2018-02-19T01:00:03.529Z,993.98
2018-02-19T01:01:10.309Z,993.95
2018-02-19T01:02:17.053Z,993.98
2018-02-19T01:03:23.861Z,993.88
2018-02-19T01:04:30.609Z,993.93
2018-02-19T01:05:37.374Z,993.92
2018-02-19T01:06:44.301Z,993.88
2018-02-19T01:07:51.066Z,993.91
2018-02-19T01:08:57.846Z,993.95
2018-02-19T01:10:04.669Z,993.90
2018-02-19T01:11:11.408Z,993.95
2018-02-19T01:12:18.201Z,993.91
2018-02-19T01:13:24.917Z,993.82
2018-02-19T01:14:31.624Z,993.82
2018-02-19T01:15:38.468Z,993.84
2018-02-19T01:16:45.188Z,993.83
2018-02-19T01:17:51.958Z,993.82
2018-02-19T01:18:58.675Z,993.94
2018-02-19T01:20:05.521Z,993.88
2018-02-19T01:21:12.515Z,993.86
2018-02-19T01:22:19.303Z,993.82
2018-02-19T01:23:26.032Z,993.87
2018-02-19T01:24:32.776Z,993.86
2018-02-19T01:25:39.490Z,993.84
2018-02-19T01:26:46.220Z,993.73
2018-02-19T01:27:53.149Z,993.73
2018-02-19T01:28:59.862Z,993.73
2018-02-19T01:30:06.613Z,993.75
2018-02-19T01:31:13.342Z,993.67
2018-02-19T01:32:20.129Z,993.63
2018-02-19T01:33:26.876Z,993.67
2018-02-19T01:34:33.608Z,993.64
2018-02-19T01:35:40.332Z,993.54
2018-02-19T01:36:47.052Z,993.59
2018-02-19T01:37:53.837Z,993.56
2018-02-19T01:39:00.721Z,993.57
2018-02-19T01:40:07.725Z,993.53
2018-02-19T01:41:14.456Z,993.50
2018-02-19T01:42:21.205Z,993.49
2018-02-19T01:43:27.961Z,993.50
2018-02-19T01:44:34.753Z,993.50
2018-02-19T01:45:41.492Z,993.49
2018-02-19T01:46:48.207Z,993.51
2018-02-19T01:47:54.960Z,993.48
2018-02-19T01:49:01.711Z,993.48
2018-02-19T01:50:08.488Z,993.50
2018-02-19T01:51:15.188Z,993.45
2018-02-19T01:52:21.941Z,993.48
2018-02-19T01:53:28.680Z,993.52
2018-02-19T01:54:35.429Z,993.53
2018-02-19T01:55:42.201Z,993.54
2018-02-19T01:56:48.910Z,993.53
2018-02-19T01:57:55.753Z,993.42
2018-02-19T01:59:02.463Z,993.42
2018-02-19T02:00:09.304Z,993.43
2018-02-19T02:01:16.038Z,993.42
2018-02-19T02:02:22.788Z,993.41
2018-02-19T02:03:29.506Z,993.42
2018-02-19T02:04:36.560Z,993.45
2018-02-19T02:05:43.325Z,993.38
2018-02-19T02:06:50.161Z,993.47
2018-02-19T02:07:56.897Z,993.39
2018-02-19T02:09:03.659Z,993.48
2018-02-19T02:10:10.372Z,993.44
2018-02-19T02:11:17.113Z,993.41
2018-02-19T02:12:23.901Z,993.47
2018-02-19T02:13:30.637Z,993.44
2018-02-19T02:14:37.383Z,993.44
2018-02-19T02:15:44.216Z,993.37
2018-02-19T02:16:50.979Z,993.37
2018-02-19T02:17:57.739Z,993.31
2018-02-19T02:19:04.484Z,993.28
2018-02-19T02:20:11.248Z,993.25
2018-02-19T02:21:18.101Z,993.27
2018-02-19T02:22:24.844Z,993.24
2018-02-19T02:23:31.623Z,993.26
2018-02-19T02:24:38.365Z,993.19
2018-02-19T02:25:47.768Z,993.17
2018-02-19T02:26:52.063Z,993.16
2018-02-19T02:27:58.797Z,993.15
2018-02-19T02:29:05.685Z,993.13
2018-02-19T02:30:12.436Z,993.20
2018-02-19T02:31:19.195Z,993.10
2018-02-19T02:32:26.025Z,993.09
2018-02-19T02:33:32.806Z,993.12
2018-02-19T02:34:39.629Z,993.07
2018-02-19T02:35:46.456Z,993.05
2018-02-19T02:36:53.355Z,993.02
2018-02-19T02:38:00.105Z,993.04
2018-02-19T02:39:06.920Z,993.03
2018-02-19T02:40:13.702Z,993.00
2018-02-19T02:41:20.459Z,993.01
2018-02-19T02:42:27.241Z,992.91
2018-02-19T02:43:34.009Z,992.87
2018-02-19T02:44:40.758Z,992.89
2018-02-19T02:45:47.534Z,992.90
2018-02-19T02:46:54.327Z,992.92
2018-02-19T02:48:01.139Z,992.93
2018-02-19T02:49:07.941Z,992.91
2018-02-19T02:50:14.724Z,992.86
2018-02-19T02:51:21.576Z,992.85
2018-02-19T02:52:28.316Z,992.83
2018-02-19T02:53:35.084Z,992.81
2018-02-19T02:54:41.833Z,992.81
2018-02-19T02:55:48.674Z,992.87
2018-02-19T02:56:55.464Z,992.85
2018-02-19T02:58:02.269Z,992.82
2018-02-19T02:59:09.140Z,992.79
2018-02-19T03:00:15.891Z,992.81
2018-02-19T03:01:22.658Z,992.73
2018-02-19T03:02:29.408Z,992.84
2018-02-19T03:03:36.218Z,992.83
2018-02-19T03:04:43.022Z,992.84
2018-02-19T03:05:49.761Z,992.80
2018-02-19T03:06:56.489Z,992.80
2018-02-19T03:08:03.307Z,992.80
2018-02-19T03:09:10.084Z,992.79
2018-02-19T03:10:16.869Z,992.85
2018-02-19T03:11:23.963Z,992.74
2018-02-19T03:12:30.708Z,992.85
2018-02-19T03:13:37.505Z,992.82
2018-02-19T03:14:44.261Z,992.85
2018-02-19T03:15:50.995Z,992.79
2018-02-19T03:16:57.744Z,992.77
2018-02-19T03:18:04.452Z,992.80
2018-02-19T03:19:11.283Z,992.77
2018-02-19T03:20:18.037Z,992.77
2018-02-19T03:21:24.773Z,992.79
2018-02-19T03:22:31.528Z,992.83
2018-02-19T03:23:38.371Z,992.81
2018-02-19T03:24:45.121Z,992.82
2018-02-19T03:25:51.898Z,992.74
2018-02-19T03:26:58.600Z,992.72
2018-02-19T03:28:05.337Z,992.71
2018-02-19T03:29:12.135Z,992.81
2018-02-19T03:30:18.888Z,992.76
2018-02-19T03:31:25.797Z,992.75
2018-02-19T03:32:32.612Z,992.71
2018-02-19T03:33:39.376Z,992.71
2018-02-19T03:34:46.104Z,992.71
2018-02-19T03:35:52.855Z,992.71
2018-02-19T03:36:59.701Z,992.78
2018-02-19T03:38:06.532Z,992.74
2018-02-19T03:39:13.256Z,992.72
2018-02-19T03:40:19.990Z,992.69
2018-02-19T03:41:26.819Z,992.72
2018-02-19T03:42:33.540Z,992.69
2018-02-19T03:43:40.276Z,992.71
2018-02-19T03:44:47.008Z,992.66
2018-02-19T03:45:53.754Z,992.70
2018-02-19T03:47:00.567Z,992.66
2018-02-19T03:48:07.312Z,992.63
2018-02-19T03:49:14.060Z,992.68
2018-02-19T03:50:20.792Z,992.71
2018-02-19T03:51:27.524Z,992.69
2018-02-19T03:52:34.319Z,992.77
2018-02-19T03:53:41.041Z,992.71
2018-02-19T03:54:47.782Z,992.76
2018-02-19T03:55:54.495Z,992.75
2018-02-19T03:57:01.253Z,992.72
2018-02-19T03:58:08.081Z,992.76
2018-02-19T03:59:14.791Z,992.78
2018-02-19T04:00:21.537Z,992.73
2018-02-19T04:01:28.239Z,992.74
2018-02-19T04:02:34.987Z,992.63
2018-02-19T04:03:41.687Z,992.71
2018-02-19T04:04:48.613Z,992.69
2018-02-19T04:05:55.353Z,992.60
2018-02-19T04:07:02.088Z,992.60
2018-02-19T04:08:08.845Z,992.56
2018-02-19T04:09:15.634Z,992.61
2018-02-19T04:10:22.352Z,992.63
2018-02-19T04:11:29.084Z,992.62
2018-02-19T04:12:35.919Z,992.57
2018-02-19T04:13:42.753Z,992.64
2018-02-19T04:14:49.458Z,992.62
2018-02-19T04:15:56.176Z,992.67
2018-02-19T04:17:02.911Z,992.62
2018-02-19T04:18:09.676Z,992.62
2018-02-19T04:19:16.492Z,992.64
2018-02-19T04:20:23.236Z,992.69
2018-02-19T04:21:29.944Z,992.62
2018-02-19T04:22:36.702Z,992.66
2018-02-19T04:23:43.437Z,992.56
2018-02-19T04:24:50.232Z,992.63
2018-02-19T04:25:56.976Z,992.73
2018-02-19T04:27:03.731Z,992.73
2018-02-19T04:28:10.488Z,992.73
2018-02-19T04:29:17.232Z,992.70
2018-02-19T04:30:23.962Z,992.70
2018-02-19T04:31:30.653Z,992.74
2018-02-19T04:32:37.416Z,992.72
2018-02-19T04:33:44.164Z,992.64
2018-02-19T04:34:50.923Z,992.71
2018-02-19T04:35:57.709Z,992.72
2018-02-19T04:37:04.412Z,992.68
2018-02-19T04:38:11.152Z,992.65
2018-02-19T04:39:17.937Z,992.63
2018-02-19T04:40:24.657Z,992.63
2018-02-19T04:41:31.445Z,992.58
2018-02-19T04:42:38.145Z,992.66
2018-02-19T04:43:44.894Z,992.57
2018-02-19T04:44:51.733Z,992.61
2018-02-19T04:45:58.564Z,992.55
2018-02-19T04:47:05.352Z,992.54
2018-02-19T04:48:12.156Z,992.55
2018-02-19T04:49:18.889Z,992.45
2018-02-19T04:50:25.681Z,992.50
2018-02-19T04:51:32.422Z,992.52
2018-02-19T04:52:39.165Z,992.48
2018-02-19T04:53:45.929Z,992.50
2018-02-19T04:54:52.801Z,992.50
2018-02-19T04:55:59.559Z,992.51
2018-02-19T04:57:06.314Z,992.47
2018-02-19T04:58:13.217Z,992.46
2018-02-19T04:59:19.958Z,992.43
2018-02-19T05:00:26.770Z,992.43
2018-02-19T05:01:33.502Z,992.42
2018-02-19T05:02:40.320Z,992.36
2018-02-19T05:03:47.033Z,992.39
2018-02-19T05:04:53.740Z,992.43
2018-02-19T05:06:00.525Z,992.36
2018-02-19T05:07:07.245Z,992.36
2018-02-19T05:08:13.956Z,992.29
2018-02-19T05:09:20.769Z,992.29
2018-02-19T05:10:27.521Z,992.30
2018-02-19T05:11:34.280Z,992.29
2018-02-19T05:12:41.058Z,992.35
2018-02-19T05:13:47.960Z,992.31
2018-02-19T05:14:54.724Z,992.27
2018-02-19T05:16:01.489Z,992.28
2018-02-19T05:17:08.354Z,992.27
2018-02-19T05:18:15.112Z,992.32
2018-02-19T05:19:21.864Z,992.28
2018-02-19T05:20:28.608Z,992.28
2018-02-19T05:21:35.472Z,992.29
2018-02-19T05:22:42.221Z,992.25
2018-02-19T05:23:48.981Z,992.25
2018-02-19T05:24:55.816Z,992.24
2018-02-19T05:26:02.577Z,992.27
2018-02-19T05:27:09.376Z,992.26
2018-02-19T05:28:16.122Z,992.31
2018-02-19T05:29:22.882Z,992.27
2018-02-19T05:30:29.797Z,992.29
2018-02-19T05:31:36.573Z,992.29
2018-02-19T05:32:43.334Z,992.30
2018-02-19T05:33:50.176Z,992.21
2018-02-19T05:34:56.936Z,992.22
2018-02-19T05:36:03.708Z,992.21
2018-02-19T05:37:10.468Z,992.28
2018-02-19T05:38:17.292Z,992.29
2018-02-19T05:39:24.018Z,992.28
2018-02-19T05:40:30.810Z,992.30
2018-02-19T05:41:37.581Z,992.25
2018-02-19T05:42:44.416Z,992.14
2018-02-19T05:43:51.237Z,992.17
2018-02-19T05:44:57.999Z,992.14
2018-02-19T05:46:05.056Z,992.24
2018-02-19T05:47:11.767Z,992.23
2018-02-19T05:48:18.800Z,992.26
2018-02-19T05:49:25.578Z,992.23
2018-02-19T05:50:32.621Z,992.19
2018-02-19T05:51:39.371Z,992.20
2018-02-19T05:52:46.357Z,992.15
2018-02-19T05:53:52.973Z,992.15
2018-02-19T05:54:59.745Z,992.26
2018-02-19T05:56:06.538Z,992.22
2018-02-19T05:57:13.415Z,992.23
2018-02-19T05:58:20.192Z,992.29
2018-02-19T05:59:26.969Z,992.26
2018-02-19T06:00:33.724Z,992.28
2018-02-19T06:01:40.548Z,992.24
2018-02-19T06:02:47.268Z,992.28
2018-02-19T06:03:54.036Z,992.25
2018-02-19T06:05:00.976Z,992.24
2018-02-19T06:06:07.741Z,992.22
2018-02-19T06:07:14.580Z,992.27
2018-02-19T06:08:21.432Z,992.16
2018-02-19T06:09:28.226Z,992.20
2018-02-19T06:10:34.988Z,992.31
2018-02-19T06:11:41.852Z,992.22
2018-02-19T06:12:48.649Z,992.18
2018-02-19T06:13:55.407Z,992.26
2018-02-19T06:15:02.270Z,992.19
2018-02-19T06:16:09.023Z,992.18
2018-02-19T06:17:15.791Z,992.27
2018-02-19T06:18:22.533Z,992.26
2018-02-19T06:19:29.594Z,992.25
2018-02-19T06:20:36.340Z,992.31
2018-02-19T06:21:43.149Z,992.25
2018-02-19T06:22:49.909Z,992.28
2018-02-19T06:23:56.659Z,992.23
2018-02-19T06:25:03.649Z,992.21
2018-02-19T06:26:10.399Z,992.08
2018-02-19T06:27:17.144Z,992.24
2018-02-19T06:28:23.944Z,992.29
2018-02-19T06:29:30.773Z,992.31
2018-02-19T06:30:37.552Z,992.30
2018-02-19T06:31:44.384Z,992.24
2018-02-19T06:32:51.152Z,992.25
2018-02-19T06:33:57.900Z,992.26
2018-02-19T06:35:04.673Z,992.32
2018-02-19T06:36:11.516Z,992.25
2018-02-19T06:37:18.273Z,992.28
2018-02-19T06:38:25.033Z,992.30
2018-02-19T06:39:31.784Z,992.32
2018-02-19T06:40:38.595Z,992.31
2018-02-19T06:41:45.385Z,992.28
2018-02-19T06:42:52.121Z,992.33
2018-02-19T06:43:58.868Z,992.32
2018-02-19T06:45:05.716Z,992.31
2018-02-19T06:46:12.452Z,992.35
2018-02-19T06:47:19.232Z,992.34
2018-02-19T06:48:25.978Z,992.32
2018-02-19T06:49:32.816Z,992.32
2018-02-19T06:50:39.577Z,992.34
2018-02-19T06:51:46.602Z,992.40
2018-02-19T06:52:53.356Z,992.34
2018-02-19T06:54:00.141Z,992.38
2018-02-19T06:55:06.869Z,992.40
2018-02-19T06:56:13.717Z,992.38
2018-02-19T06:57:20.484Z,992.38
2018-02-19T06:58:27.393Z,992.34
2018-02-19T06:59:34.155Z,992.40
2018-02-19T07:00:40.872Z,992.38
2018-02-19T07:01:47.617Z,992.35
2018-02-19T07:02:54.384Z,992.43
2018-02-19T07:04:01.129Z,992.46
2018-02-19T07:05:07.924Z,992.38
2018-02-19T07:06:14.690Z,992.35
2018-02-19T07:07:21.461Z,992.29
2018-02-19T07:08:28.229Z,992.18
2018-02-19T07:09:35.020Z,992.14
2018-02-19T07:10:41.740Z,992.15
2018-02-19T07:11:48.604Z,992.14
2018-02-19T07:12:55.472Z,992.16
2018-02-19T07:14:02.250Z,992.20
2018-02-19T07:15:09.001Z,992.22
2018-02-19T07:16:15.724Z,992.24
2018-02-19T07:17:22.561Z,992.16
2018-02-19T07:18:29.320Z,992.19
2018-02-19T07:19:36.105Z,992.19
2018-02-19T07:20:42.829Z,992.14
2018-02-19T07:21:49.693Z,992.18
2018-02-19T07:22:56.544Z,992.17
2018-02-19T07:24:03.606Z,992.18
2018-02-19T07:25:10.409Z,992.16
2018-02-19T07:26:17.378Z,992.20
2018-02-19T07:27:24.140Z,992.19
2018-02-19T07:28:30.920Z,992.19
2018-02-19T07:29:37.764Z,992.22
2018-02-19T07:30:44.510Z,992.28
2018-02-19T07:31:51.275Z,992.19
2018-02-19T07:32:57.995Z,992.27
2018-02-19T07:34:04.926Z,992.18
2018-02-19T07:35:11.692Z,992.16
2018-02-19T07:36:18.440Z,992.18
2018-02-19T07:37:25.290Z,992.16
2018-02-19T07:38:32.058Z,992.16
2018-02-19T07:39:38.829Z,992.14
2018-02-19T07:40:45.739Z,992.17
2018-02-19T07:41:52.504Z,992.14
2018-02-19T07:42:59.250Z,992.15
2018-02-19T07:44:05.989Z,992.13
2018-02-19T07:45:12.968Z,992.13
2018-02-19T07:46:19.717Z,992.15
2018-02-19T07:47:26.463Z,992.09
2018-02-19T07:48:33.365Z,992.07
2018-02-19T07:49:40.148Z,992.04
2018-02-19T07:50:46.913Z,992.03
2018-02-19T07:51:53.726Z,992.05
2018-02-19T07:53:00.457Z,992.05
2018-02-19T07:54:07.222Z,991.98
2018-02-19T07:55:13.944Z,992.03
2018-02-19T07:56:20.788Z,992.03
2018-02-19T07:57:27.524Z,992.05
2018-02-19T07:58:34.252Z,992.03
2018-02-19T07:59:40.998Z,992.02
2018-02-19T08:00:47.722Z,991.98
2018-02-19T08:01:54.526Z,991.95
2018-02-19T08:03:01.337Z,992.05
2018-02-19T08:04:08.173Z,991.97
2018-02-19T08:05:14.916Z,992.04
2018-02-19T08:06:21.672Z,992.00
2018-02-19T08:07:28.675Z,992.12
2018-02-19T08:08:35.395Z,992.15
2018-02-19T08:09:42.148Z,992.10
2018-02-19T08:10:48.905Z,992.04
2018-02-19T08:11:55.647Z,992.08
2018-02-19T08:13:02.432Z,992.02
2018-02-19T08:14:09.173Z,992.00
2018-02-19T08:15:15.943Z,991.98
2018-02-19T08:16:22.666Z,991.89
2018-02-19T08:17:29.560Z,991.94
2018-02-19T08:18:36.325Z,991.86
2018-02-19T08:19:43.055Z,991.85
2018-02-19T08:20:49.797Z,991.74
2018-02-19T08:21:56.665Z,991.78
2018-02-19T08:23:03.400Z,991.84
2018-02-19T08:24:10.132Z,991.66
2018-02-19T08:25:16.846Z,991.66
2018-02-19T08:26:23.636Z,991.65
2018-02-19T08:27:30.429Z,991.54
2018-02-19T08:28:37.169Z,991.63
2018-02-19T08:29:43.923Z,991.65
2018-02-19T08:30:50.640Z,991.68
2018-02-19T08:31:57.339Z,991.69
2018-02-19T08:33:04.268Z,991.70
2018-02-19T08:34:10.980Z,991.67
2018-02-19T08:35:17.725Z,991.56
2018-02-19T08:36:24.416Z,991.61
2018-02-19T08:37:31.107Z,991.58
2018-02-19T08:38:37.925Z,991.56
2018-02-19T08:39:44.760Z,991.52
2018-02-19T08:40:51.552Z,991.51
2018-02-19T08:41:58.351Z,991.52
2018-02-19T08:43:05.091Z,991.50
2018-02-19T08:44:11.832Z,991.48
2018-02-19T08:45:18.538Z,991.43
2018-02-19T08:46:25.297Z,991.44
2018-02-19T08:47:32.440Z,991.47
2018-02-19T08:48:39.076Z,991.44
2018-02-19T08:49:45.891Z,991.53
2018-02-19T08:50:52.693Z,991.50
2018-02-19T08:51:59.743Z,991.52
2018-02-19T08:53:06.578Z,991.55
2018-02-19T08:54:13.328Z,991.53
2018-02-19T08:55:20.143Z,991.50
2018-02-19T08:56:26.877Z,991.53
2018-02-19T08:57:33.646Z,991.52
2018-02-19T08:58:40.667Z,991.56
2018-02-19T08:59:47.407Z,991.57
2018-02-19T09:00:54.182Z,991.44
2018-02-19T09:02:00.915Z,991.45
2018-02-19T09:03:07.753Z,991.48
2018-02-19T09:04:14.492Z,991.52
2018-02-19T09:05:21.232Z,991.46
2018-02-19T09:06:27.978Z,991.41
2018-02-19T09:07:34.809Z,991.42
2018-02-19T09:08:41.548Z,991.43
2018-02-19T09:09:48.273Z,991.49
2018-02-19T09:10:55.032Z,991.40
2018-02-19T09:12:01.879Z,991.48
2018-02-19T09:13:08.956Z,991.36
2018-02-19T09:14:15.820Z,991.35
2018-02-19T09:15:22.571Z,991.39
2018-02-19T09:16:29.309Z,991.38
2018-02-19T09:17:36.009Z,991.30
2018-02-19T09:18:42.837Z,991.37
2018-02-19T09:19:49.547Z,991.33
2018-02-19T09:20:56.326Z,991.33
2018-02-19T09:22:03.088Z,991.33
2018-02-19T09:23:09.832Z,991.33
2018-02-19T09:24:16.621Z,991.36
2018-02-19T09:25:23.358Z,991.32
2018-02-19T09:26:30.140Z,991.33
2018-02-19T09:27:36.889Z,991.28
2018-02-19T09:28:43.614Z,991.31
2018-02-19T09:29:50.484Z,991.29
2018-02-19T09:30:57.254Z,991.27
2018-02-19T09:32:03.996Z,991.28
2018-02-19T09:33:10.737Z,991.26
2018-02-19T09:34:17.539Z,991.18
2018-02-19T09:35:24.298Z,991.22
2018-02-19T09:36:31.701Z,991.22
2018-02-19T09:37:38.029Z,991.26
2018-02-19T09:38:44.877Z,991.29
2018-02-19T09:39:51.827Z,991.24
2018-02-19T09:40:58.957Z,991.33
2018-02-19T09:42:05.687Z,991.27
2018-02-19T09:43:12.418Z,991.25
2018-02-19T09:44:19.184Z,991.23
2018-02-19T09:45:26.048Z,991.25
2018-02-19T09:46:32.803Z,991.24
2018-02-19T09:47:39.601Z,991.32
2018-02-19T09:48:46.341Z,991.32
2018-02-19T09:49:53.178Z,991.31
2018-02-19T09:50:59.897Z,991.41
2018-02-19T09:52:06.628Z,991.43
2018-02-19T09:53:13.393Z,991.38
2018-02-19T09:54:20.104Z,991.37
2018-02-19T09:55:27.280Z,991.33
2018-02-19T09:56:34.244Z,991.39
2018-02-19T09:57:41.117Z,991.36
2018-02-19T09:58:47.960Z,991.35
2018-02-19T09:59:54.692Z,991.33
2018-02-19T10:01:01.677Z,991.25
2018-02-19T10:02:08.532Z,991.29
2018-02-19T10:03:15.345Z,991.26
2018-02-19T10:04:22.235Z,991.26
2018-02-19T10:05:29.254Z,991.16
2018-02-19T10:06:36.033Z,991.21
2018-02-19T10:07:42.780Z,991.18
2018-02-19T10:08:49.585Z,991.14
2018-02-19T10:09:56.328Z,991.13
2018-02-19T10:11:03.148Z,991.07
2018-02-19T10:12:09.875Z,991.12
2018-02-19T10:13:16.955Z,991.11
2018-02-19T10:14:23.720Z,991.13
2018-02-19T10:15:30.533Z,991.06
2018-02-19T10:16:37.376Z,991.13
2018-02-19T10:17:44.108Z,991.12
2018-02-19T10:18:50.839Z,991.16
2018-02-19T10:19:57.577Z,991.08
2018-02-19T10:21:04.304Z,991.08
2018-02-19T10:22:11.162Z,991.07
2018-02-19T10:23:17.925Z,990.99
2018-02-19T10:24:24.700Z,991.05
2018-02-19T10:25:31.399Z,991.02
2018-02-19T10:26:38.429Z,990.95
2018-02-19T10:27:45.185Z,990.98
2018-02-19T10:28:51.948Z,990.95
2018-02-19T10:29:58.700Z,991.02
2018-02-19T10:31:05.437Z,990.99
2018-02-19T10:32:12.187Z,990.99
2018-02-19T10:33:18.920Z,991.07
2018-02-19T10:34:25.771Z,991.03
2018-02-19T10:35:32.492Z,990.91
2018-02-19T10:36:39.256Z,990.99
2018-02-19T10:37:46.005Z,990.96
2018-02-19T10:38:52.736Z,990.96
2018-02-19T10:39:59.516Z,991.01
2018-02-19T10:41:06.491Z,991.02
2018-02-19T10:42:13.320Z,991.01
2018-02-19T10:43:20.148Z,991.05
2018-02-19T10:44:26.947Z,991.01
2018-02-19T10:45:33.791Z,990.98
2018-02-19T10:46:40.552Z,991.05
2018-02-19T10:47:47.280Z,991.08
2018-02-19T10:48:54.016Z,991.10
2018-02-19T10:50:00.734Z,991.02
2018-02-19T10:51:07.520Z,990.96
2018-02-19T10:52:14.353Z,991.03
2018-02-19T10:53:21.084Z,990.93
2018-02-19T10:54:27.803Z,990.96
2018-02-19T10:55:34.623Z,990.92
2018-02-19T10:56:41.356Z,990.94
2018-02-19T10:57:48.094Z,990.96
2018-02-19T10:58:54.822Z,991.01
2018-02-19T11:00:01.662Z,991.03
2018-02-19T11:01:08.485Z,991.03
2018-02-19T11:02:15.179Z,991.01
2018-02-19T11:03:21.947Z,991.01
2018-02-19T11:04:28.819Z,991.00
2018-02-19T11:05:35.588Z,991.01
2018-02-19T11:06:42.340Z,990.95
2018-02-19T11:07:49.067Z,990.97
2018-02-19T11:08:55.796Z,990.91
2018-02-19T11:10:02.865Z,990.93
2018-02-19T11:11:09.686Z,990.87
2018-02-19T11:12:16.424Z,990.86
2018-02-19T11:13:23.236Z,990.93
2018-02-19T11:14:29.935Z,990.82
2018-02-19T11:15:36.766Z,990.80
2018-02-19T11:16:43.508Z,990.84
2018-02-19T11:17:50.273Z,990.84
2018-02-19T11:18:57.016Z,990.82
2018-02-19T11:20:03.828Z,990.71
2018-02-19T11:21:10.547Z,990.73
2018-02-19T11:22:17.285Z,990.62
2018-02-19T11:23:24.033Z,990.64
2018-02-19T11:24:30.722Z,990.64
2018-02-19T11:25:37.412Z,990.69
2018-02-19T11:26:44.109Z,990.67
2018-02-19T11:27:50.836Z,990.57
2018-02-19T11:28:57.576Z,990.65
2018-02-19T11:30:04.324Z,990.61
2018-02-19T11:31:11.029Z,990.60
2018-02-19T11:32:17.752Z,990.70
2018-02-19T11:33:24.504Z,990.70
2018-02-19T11:34:31.275Z,990.66
2018-02-19T11:35:38.011Z,990.64
2018-02-19T11:36:44.752Z,990.60
2018-02-19T11:37:51.581Z,990.57
2018-02-19T11:38:58.317Z,990.58
2018-02-19T11:40:05.045Z,990.56
2018-02-19T11:41:11.785Z,990.57
2018-02-19T11:42:18.513Z,990.58
2018-02-19T11:43:25.268Z,990.57
2018-02-19T11:44:32.040Z,990.57
2018-02-19T11:45:38.774Z,990.58
2018-02-19T11:46:45.507Z,990.51
2018-02-19T11:47:52.333Z,990.56
2018-02-19T11:48:59.040Z,990.36
2018-02-19T11:50:05.788Z,990.43
2018-02-19T11:51:12.525Z,990.40
2018-02-19T11:52:19.251Z,990.49
2018-02-19T11:53:25.953Z,990.46
2018-02-19T11:54:32.733Z,990.39
2018-02-19T11:55:39.507Z,990.40
2018-02-19T11:56:46.272Z,990.40
2018-02-19T11:57:53.157Z,990.40
2018-02-19T11:58:59.882Z,990.37
2018-02-19T12:00:06.620Z,990.39
2018-02-19T12:01:13.381Z,990.35
2018-02-19T12:02:20.105Z,990.39
2018-02-19T12:03:26.924Z,990.39
2018-02-19T12:04:33.628Z,990.39
2018-02-19T12:05:40.391Z,990.42
2018-02-19T12:06:47.136Z,990.45
2018-02-19T12:07:53.869Z,990.36
2018-02-19T12:09:00.651Z,990.35
2018-02-19T12:10:07.681Z,990.33
2018-02-19T12:11:14.468Z,990.27
2018-02-19T12:12:21.207Z,990.28
2018-02-19T12:13:27.963Z,990.34
2018-02-19T12:14:34.692Z,990.32
2018-02-19T12:15:41.536Z,990.26
2018-02-19T12:16:48.292Z,990.30
2018-02-19T12:17:55.044Z,990.20
2018-02-19T12:19:01.816Z,990.22
2018-02-19T12:20:08.619Z,990.22
2018-02-19T12:21:15.347Z,990.23
2018-02-19T12:22:22.149Z,990.16
2018-02-19T12:23:28.877Z,990.21
2018-02-19T12:24:35.688Z,990.25
2018-02-19T12:25:42.384Z,990.17
2018-02-19T12:26:49.135Z,990.14
2018-02-19T12:27:55.896Z,990.19
2018-02-19T12:29:02.755Z,990.13
2018-02-19T12:30:09.502Z,990.14
2018-02-19T12:31:16.284Z,990.12
2018-02-19T12:32:23.051Z,990.10
2018-02-19T12:33:29.925Z,990.10
2018-02-19T12:34:36.735Z,990.05
2018-02-19T12:35:43.468Z,990.03
2018-02-19T12:36:50.233Z,989.98
2018-02-19T12:37:56.979Z,990.03
2018-02-19T12:39:03.747Z,990.07
2018-02-19T12:40:10.491Z,989.97
2018-02-19T12:41:17.330Z,989.98
2018-02-19T12:42:24.089Z,989.97
2018-02-19T12:43:30.916Z,989.94
2018-02-19T12:44:37.732Z,989.99
2018-02-19T12:45:44.445Z,989.91
2018-02-19T12:46:51.180Z,989.96
2018-02-19T12:47:57.913Z,989.97
2018-02-19T12:49:04.689Z,989.90
2018-02-19T12:50:11.588Z,989.95
2018-02-19T12:51:18.364Z,989.93
2018-02-19T12:52:25.341Z,989.86
2018-02-19T12:53:32.101Z,989.92
2018-02-19T12:54:38.857Z,989.90
2018-02-19T12:55:45.747Z,989.83
2018-02-19T12:56:52.502Z,989.84
2018-02-19T12:57:59.357Z,989.89
2018-02-19T12:59:06.152Z,989.95
2018-02-19T13:00:12.899Z,989.91
2018-02-19T13:01:19.637Z,989.89
2018-02-19T13:02:26.634Z,989.89
2018-02-19T13:03:33.396Z,989.87
2018-02-19T13:04:40.108Z,989.84
2018-02-19T13:05:46.837Z,989.85
2018-02-19T13:06:53.641Z,989.85
2018-02-19T13:08:00.402Z,989.85
2018-02-19T13:09:07.180Z,989.83
2018-02-19T13:10:13.927Z,989.87
2018-02-19T13:11:20.723Z,989.83
2018-02-19T13:12:27.469Z,989.76
2018-02-19T13:13:34.305Z,989.67
2018-02-19T13:14:41.141Z,989.73
2018-02-19T13:15:47.916Z,989.65
2018-02-19T13:16:54.701Z,989.70
2018-02-19T13:18:01.659Z,989.64
2018-02-19T13:19:08.419Z,989.55
2018-02-19T13:20:15.167Z,989.61
2018-02-19T13:21:22.020Z,989.52
2018-02-19T13:22:28.786Z,989.45
2018-02-19T13:23:35.556Z,989.52
2018-02-19T13:24:42.426Z,989.41
2018-02-19T13:25:49.185Z,989.42
2018-02-19T13:26:55.967Z,989.43
2018-02-19T13:28:02.816Z,989.38
2018-02-19T13:29:09.593Z,989.42
2018-02-19T13:30:16.625Z,989.43
2018-02-19T13:31:23.375Z,989.53
2018-02-19T13:32:30.156Z,989.39
2018-02-19T13:33:36.909Z,989.45
2018-02-19T13:34:43.682Z,989.44
2018-02-19T13:35:50.436Z,989.45
2018-02-19T13:36:57.393Z,989.45
2018-02-19T13:38:04.153Z,989.44
2018-02-19T13:39:11.327Z,989.37
2018-02-19T13:40:18.381Z,989.45
2018-02-19T13:41:25.127Z,989.47
2018-02-19T13:42:31.872Z,989.45
2018-02-19T13:43:38.658Z,989.40
2018-02-19T13:44:45.476Z,989.44
2018-02-19T13:45:52.262Z,989.48
2018-02-19T13:46:59.025Z,989.46
2018-02-19T13:48:05.920Z,989.47
2018-02-19T13:49:12.732Z,989.45
2018-02-19T13:50:19.788Z,989.44
2018-02-19T13:51:26.584Z,989.47
2018-02-19T13:52:33.459Z,989.54
2018-02-19T13:53:40.232Z,989.47